sensor_id;sensor_type;location;lat;lon;timestamp;P1;durP1;ratioP1;P2;durP2;ratioP2
8488;SDS011;4281;45.772;12.852;2023-06-10T00:01:12;9.90;;;9.13;;
8488;SDS011;4281;45.772;12.852;2023-06-10T00:03:44;10.30;;;9.23;;
8488;SDS011;4281;45.772;12.852;2023-06-10T00:06:12;10.47;;;9.47;;
8488;SDS011;4281;45.772;12.852;2023-06-10T00:08:40;9.83;;;9.03;;
8488;SDS011;4281;45.772;12.852;2023-06-10T00:11:08;9.20;;;8.50;;
8488;SDS011;4281;45.772;12.852;2023-06-10T00:13:36;9.63;;;8.73;;
8488;SDS011;4281;45.772;12.852;2023-06-10T00:16:06;8.77;;;8.07;;
8488;SDS011;4281;45.772;12.852;2023-06-10T00:18:33;9.53;;;8.83;;
8488;SDS011;4281;45.772;12.852;2023-06-10T00:21:03;9.80;;;9.10;;
8488;SDS011;4281;45.772;12.852;2023-06-10T00:23:31;10.80;;;10.00;;
8488;SDS011;4281;45.772;12.852;2023-06-10T00:26:04;11.40;;;10.43;;
8488;SDS011;4281;45.772;12.852;2023-06-10T00:28:32;11.93;;;11.03;;
8488;SDS011;4281;45.772;12.852;2023-06-10T00:31:00;12.70;;;11.67;;
8488;SDS011;4281;45.772;12.852;2023-06-10T00:33:30;12.27;;;11.17;;
8488;SDS011;4281;45.772;12.852;2023-06-10T00:35:58;11.40;;;10.50;;
8488;SDS011;4281;45.772;12.852;2023-06-10T00:38:26;12.47;;;11.47;;
8488;SDS011;4281;45.772;12.852;2023-06-10T00:40:53;12.23;;;11.30;;
8488;SDS011;4281;45.772;12.852;2023-06-10T00:43:21;13.80;;;12.60;;
8488;SDS011;4281;45.772;12.852;2023-06-10T00:45:49;13.00;;;12.00;;
8488;SDS011;4281;45.772;12.852;2023-06-10T00:48:17;12.03;;;11.13;;
8488;SDS011;4281;45.772;12.852;2023-06-10T00:50:47;12.80;;;11.80;;
8488;SDS011;4281;45.772;12.852;2023-06-10T00:53:15;12.87;;;11.87;;
8488;SDS011;4281;45.772;12.852;2023-06-10T00:56:01;13.23;;;12.07;;
8488;SDS011;4281;45.772;12.852;2023-06-10T00:58:29;12.77;;;11.87;;
8488;SDS011;4281;45.772;12.852;2023-06-10T01:00:57;14.00;;;12.90;;
8488;SDS011;4281;45.772;12.852;2023-06-10T01:03:25;14.33;;;13.13;;
8488;SDS011;4281;45.772;12.852;2023-06-10T01:05:57;14.00;;;12.90;;
8488;SDS011;4281;45.772;12.852;2023-06-10T01:08:29;14.77;;;13.57;;
8488;SDS011;4281;45.772;12.852;2023-06-10T01:11:01;13.80;;;12.73;;
8488;SDS011;4281;45.772;12.852;2023-06-10T01:13:32;13.20;;;12.20;;
8488;SDS011;4281;45.772;12.852;2023-06-10T01:16:01;14.17;;;13.07;;
8488;SDS011;4281;45.772;12.852;2023-06-10T01:18:29;14.23;;;13.23;;
8488;SDS011;4281;45.772;12.852;2023-06-10T01:21:00;14.00;;;12.90;;
8488;SDS011;4281;45.772;12.852;2023-06-10T01:23:29;14.70;;;13.50;;
8488;SDS011;4281;45.772;12.852;2023-06-10T01:25:59;14.13;;;12.83;;
8488;SDS011;4281;45.772;12.852;2023-06-10T01:28:29;13.50;;;12.43;;
8488;SDS011;4281;45.772;12.852;2023-06-10T01:31:00;13.97;;;12.83;;
8488;SDS011;4281;45.772;12.852;2023-06-10T01:33:37;13.93;;;12.80;;
8488;SDS011;4281;45.772;12.852;2023-06-10T01:36:09;15.03;;;13.73;;
8488;SDS011;4281;45.772;12.852;2023-06-10T01:38:39;14.67;;;13.57;;
8488;SDS011;4281;45.772;12.852;2023-06-10T01:41:10;14.67;;;13.47;;
8488;SDS011;4281;45.772;12.852;2023-06-10T01:43:38;15.00;;;13.80;;
8488;SDS011;4281;45.772;12.852;2023-06-10T01:46:06;14.70;;;13.67;;
8488;SDS011;4281;45.772;12.852;2023-06-10T01:48:34;14.37;;;13.27;;
8488;SDS011;4281;45.772;12.852;2023-06-10T01:51:02;14.43;;;13.23;;
8488;SDS011;4281;45.772;12.852;2023-06-10T01:53:30;14.10;;;13.03;;
8488;SDS011;4281;45.772;12.852;2023-06-10T01:56:00;14.50;;;13.33;;
8488;SDS011;4281;45.772;12.852;2023-06-10T01:58:27;14.40;;;13.30;;
8488;SDS011;4281;45.772;12.852;2023-06-10T02:00:55;15.63;;;14.43;;
8488;SDS011;4281;45.772;12.852;2023-06-10T02:03:23;15.47;;;14.27;;
8488;SDS011;4281;45.772;12.852;2023-06-10T02:05:52;15.70;;;14.50;;
8488;SDS011;4281;45.772;12.852;2023-06-10T02:08:20;15.43;;;14.33;;
8488;SDS011;4281;45.772;12.852;2023-06-10T02:10:48;16.00;;;14.80;;
8488;SDS011;4281;45.772;12.852;2023-06-10T02:13:17;15.90;;;14.70;;
8488;SDS011;4281;45.772;12.852;2023-06-10T02:15:45;15.77;;;14.57;;
8488;SDS011;4281;45.772;12.852;2023-06-10T02:18:13;16.43;;;15.13;;
8488;SDS011;4281;45.772;12.852;2023-06-10T02:20:41;15.07;;;13.93;;
8488;SDS011;4281;45.772;12.852;2023-06-10T02:23:09;16.77;;;15.47;;
8488;SDS011;4281;45.772;12.852;2023-06-10T02:25:37;16.23;;;14.83;;
8488;SDS011;4281;45.772;12.852;2023-06-10T02:28:04;15.00;;;13.80;;
8488;SDS011;4281;45.772;12.852;2023-06-10T02:30:34;14.93;;;13.73;;
8488;SDS011;4281;45.772;12.852;2023-06-10T02:33:03;14.40;;;13.27;;
8488;SDS011;4281;45.772;12.852;2023-06-10T02:35:31;15.47;;;14.07;;
8488;SDS011;4281;45.772;12.852;2023-06-10T02:37:59;15.37;;;14.17;;
8488;SDS011;4281;45.772;12.852;2023-06-10T02:40:27;15.20;;;13.90;;
8488;SDS011;4281;45.772;12.852;2023-06-10T02:42:55;14.87;;;13.77;;
8488;SDS011;4281;45.772;12.852;2023-06-10T02:45:23;14.73;;;13.53;;
8488;SDS011;4281;45.772;12.852;2023-06-10T02:47:52;15.00;;;13.80;;
8488;SDS011;4281;45.772;12.852;2023-06-10T02:50:20;15.40;;;14.10;;
8488;SDS011;4281;45.772;12.852;2023-06-10T02:52:48;15.50;;;14.23;;
8488;SDS011;4281;45.772;12.852;2023-06-10T02:55:16;14.70;;;13.60;;
8488;SDS011;4281;45.772;12.852;2023-06-10T02:57:44;14.47;;;13.27;;
8488;SDS011;4281;45.772;12.852;2023-06-10T03:00:13;13.17;;;12.17;;
8488;SDS011;4281;45.772;12.852;2023-06-10T03:02:41;12.93;;;11.83;;
8488;SDS011;4281;45.772;12.852;2023-06-10T03:05:10;12.23;;;11.33;;
8488;SDS011;4281;45.772;12.852;2023-06-10T03:07:39;12.47;;;11.47;;
8488;SDS011;4281;45.772;12.852;2023-06-10T03:10:07;12.20;;;11.20;;
8488;SDS011;4281;45.772;12.852;2023-06-10T03:12:35;12.47;;;11.47;;
8488;SDS011;4281;45.772;12.852;2023-06-10T03:15:04;12.70;;;11.60;;
8488;SDS011;4281;45.772;12.852;2023-06-10T03:17:33;11.80;;;10.90;;
8488;SDS011;4281;45.772;12.852;2023-06-10T03:20:01;12.43;;;11.43;;
8488;SDS011;4281;45.772;12.852;2023-06-10T03:22:33;11.93;;;10.90;;
8488;SDS011;4281;45.772;12.852;2023-06-10T03:25:01;10.67;;;9.77;;
8488;SDS011;4281;45.772;12.852;2023-06-10T03:27:29;11.63;;;10.73;;
8488;SDS011;4281;45.772;12.852;2023-06-10T03:29:57;11.70;;;10.70;;
8488;SDS011;4281;45.772;12.852;2023-06-10T03:32:25;10.33;;;9.43;;
8488;SDS011;4281;45.772;12.852;2023-06-10T03:34:53;10.43;;;9.63;;
8488;SDS011;4281;45.772;12.852;2023-06-10T03:37:23;11.17;;;10.20;;
8488;SDS011;4281;45.772;12.852;2023-06-10T03:39:53;10.07;;;9.27;;
8488;SDS011;4281;45.772;12.852;2023-06-10T03:42:20;10.33;;;9.47;;
8488;SDS011;4281;45.772;12.852;2023-06-10T03:44:48;9.93;;;9.03;;
8488;SDS011;4281;45.772;12.852;2023-06-10T03:47:16;9.47;;;8.67;;
8488;SDS011;4281;45.772;12.852;2023-06-10T03:49:45;9.17;;;8.47;;
8488;SDS011;4281;45.772;12.852;2023-06-10T03:52:12;9.03;;;8.37;;
8488;SDS011;4281;45.772;12.852;2023-06-10T03:54:41;9.00;;;8.17;;
8488;SDS011;4281;45.772;12.852;2023-06-10T03:57:11;9.13;;;8.40;;
8488;SDS011;4281;45.772;12.852;2023-06-10T03:59:39;8.83;;;8.23;;
8488;SDS011;4281;45.772;12.852;2023-06-10T04:02:07;8.70;;;7.90;;
8488;SDS011;4281;45.772;12.852;2023-06-10T04:04:35;9.33;;;8.53;;
8488;SDS011;4281;45.772;12.852;2023-06-10T04:07:04;9.37;;;8.57;;
8488;SDS011;4281;45.772;12.852;2023-06-10T04:09:32;8.50;;;7.90;;
8488;SDS011;4281;45.772;12.852;2023-06-10T04:12:00;9.57;;;8.77;;
8488;SDS011;4281;45.772;12.852;2023-06-10T04:14:30;10.30;;;9.43;;
8488;SDS011;4281;45.772;12.852;2023-06-10T04:16:58;10.03;;;9.23;;
8488;SDS011;4281;45.772;12.852;2023-06-10T04:19:27;9.00;;;8.23;;
8488;SDS011;4281;45.772;12.852;2023-06-10T04:21:57;9.70;;;8.80;;
8488;SDS011;4281;45.772;12.852;2023-06-10T04:24:25;9.63;;;8.90;;
8488;SDS011;4281;45.772;12.852;2023-06-10T04:26:53;8.67;;;7.87;;
8488;SDS011;4281;45.772;12.852;2023-06-10T04:29:21;9.03;;;8.27;;
8488;SDS011;4281;45.772;12.852;2023-06-10T04:31:50;8.57;;;7.90;;
8488;SDS011;4281;45.772;12.852;2023-06-10T04:34:19;8.47;;;7.87;;
8488;SDS011;4281;45.772;12.852;2023-06-10T04:36:47;9.40;;;8.63;;
8488;SDS011;4281;45.772;12.852;2023-06-10T04:39:14;9.57;;;8.77;;
8488;SDS011;4281;45.772;12.852;2023-06-10T04:41:43;9.67;;;8.77;;
8488;SDS011;4281;45.772;12.852;2023-06-10T04:44:11;8.57;;;7.87;;
8488;SDS011;4281;45.772;12.852;2023-06-10T04:46:40;8.07;;;7.47;;
8488;SDS011;4281;45.772;12.852;2023-06-10T04:49:09;7.70;;;7.10;;
8488;SDS011;4281;45.772;12.852;2023-06-10T04:51:37;7.67;;;7.07;;
8488;SDS011;4281;45.772;12.852;2023-06-10T04:54:05;7.70;;;7.00;;
8488;SDS011;4281;45.772;12.852;2023-06-10T04:56:33;8.50;;;7.80;;
8488;SDS011;4281;45.772;12.852;2023-06-10T04:59:03;8.07;;;7.37;;
8488;SDS011;4281;45.772;12.852;2023-06-10T05:01:31;7.83;;;7.03;;
8488;SDS011;4281;45.772;12.852;2023-06-10T05:03:59;7.70;;;7.10;;
8488;SDS011;4281;45.772;12.852;2023-06-10T05:06:29;8.87;;;7.93;;
8488;SDS011;4281;45.772;12.852;2023-06-10T05:08:56;8.37;;;7.60;;
8488;SDS011;4281;45.772;12.852;2023-06-10T05:11:24;7.90;;;7.20;;
8488;SDS011;4281;45.772;12.852;2023-06-10T05:13:52;8.07;;;7.37;;
8488;SDS011;4281;45.772;12.852;2023-06-10T05:16:21;7.60;;;6.90;;
8488;SDS011;4281;45.772;12.852;2023-06-10T05:18:48;8.33;;;7.63;;
8488;SDS011;4281;45.772;12.852;2023-06-10T05:21:17;8.00;;;7.30;;
8488;SDS011;4281;45.772;12.852;2023-06-10T05:23:46;8.37;;;7.70;;
8488;SDS011;4281;45.772;12.852;2023-06-10T05:26:14;9.17;;;8.37;;
8488;SDS011;4281;45.772;12.852;2023-06-10T05:28:42;8.17;;;7.53;;
8488;SDS011;4281;45.772;12.852;2023-06-10T05:31:10;8.20;;;7.60;;
8488;SDS011;4281;45.772;12.852;2023-06-10T05:33:38;8.83;;;8.13;;
8488;SDS011;4281;45.772;12.852;2023-06-10T05:36:06;8.17;;;7.40;;
8488;SDS011;4281;45.772;12.852;2023-06-10T05:38:34;9.53;;;8.40;;
8488;SDS011;4281;45.772;12.852;2023-06-10T05:41:03;8.30;;;7.67;;
8488;SDS011;4281;45.772;12.852;2023-06-10T05:43:31;8.23;;;7.53;;
8488;SDS011;4281;45.772;12.852;2023-06-10T05:45:59;8.87;;;8.17;;
8488;SDS011;4281;45.772;12.852;2023-06-10T05:48:27;9.30;;;8.50;;
8488;SDS011;4281;45.772;12.852;2023-06-10T05:50:55;9.07;;;8.37;;
8488;SDS011;4281;45.772;12.852;2023-06-10T05:53:24;9.27;;;8.57;;
8488;SDS011;4281;45.772;12.852;2023-06-10T05:55:52;8.63;;;7.90;;
8488;SDS011;4281;45.772;12.852;2023-06-10T05:58:25;9.23;;;8.47;;
8488;SDS011;4281;45.772;12.852;2023-06-10T06:00:53;8.77;;;8.07;;
8488;SDS011;4281;45.772;12.852;2023-06-10T06:03:21;9.27;;;8.47;;
8488;SDS011;4281;45.772;12.852;2023-06-10T06:05:49;9.13;;;8.43;;
8488;SDS011;4281;45.772;12.852;2023-06-10T06:08:16;9.23;;;8.53;;
8488;SDS011;4281;45.772;12.852;2023-06-10T06:10:45;9.50;;;8.80;;
8488;SDS011;4281;45.772;12.852;2023-06-10T06:13:14;9.10;;;8.50;;
8488;SDS011;4281;45.772;12.852;2023-06-10T06:15:43;9.33;;;8.63;;
8488;SDS011;4281;45.772;12.852;2023-06-10T06:18:11;9.70;;;8.97;;
8488;SDS011;4281;45.772;12.852;2023-06-10T06:20:39;10.07;;;9.27;;
8488;SDS011;4281;45.772;12.852;2023-06-10T06:23:07;9.87;;;9.10;;
8488;SDS011;4281;45.772;12.852;2023-06-10T06:25:36;9.13;;;8.40;;
8488;SDS011;4281;45.772;12.852;2023-06-10T06:28:05;10.03;;;9.13;;
8488;SDS011;4281;45.772;12.852;2023-06-10T06:30:34;9.30;;;8.60;;
8488;SDS011;4281;45.772;12.852;2023-06-10T06:33:03;9.23;;;8.53;;
8488;SDS011;4281;45.772;12.852;2023-06-10T06:35:32;9.90;;;9.10;;
8488;SDS011;4281;45.772;12.852;2023-06-10T06:38:00;9.13;;;8.43;;
8488;SDS011;4281;45.772;12.852;2023-06-10T06:40:30;9.50;;;8.80;;
8488;SDS011;4281;45.772;12.852;2023-06-10T06:42:58;10.87;;;9.97;;
8488;SDS011;4281;45.772;12.852;2023-06-10T06:45:26;11.17;;;10.27;;
8488;SDS011;4281;45.772;12.852;2023-06-10T06:47:55;12.60;;;11.30;;
8488;SDS011;4281;45.772;12.852;2023-06-10T06:50:25;11.17;;;10.17;;
8488;SDS011;4281;45.772;12.852;2023-06-10T06:52:53;10.97;;;10.10;;
8488;SDS011;4281;45.772;12.852;2023-06-10T06:55:21;10.50;;;9.70;;
8488;SDS011;4281;45.772;12.852;2023-06-10T06:57:49;10.93;;;10.00;;
8488;SDS011;4281;45.772;12.852;2023-06-10T07:00:17;11.23;;;10.30;;
8488;SDS011;4281;45.772;12.852;2023-06-10T07:02:45;10.53;;;9.73;;
8488;SDS011;4281;45.772;12.852;2023-06-10T07:05:13;10.63;;;9.83;;
8488;SDS011;4281;45.772;12.852;2023-06-10T07:07:43;9.93;;;9.13;;
8488;SDS011;4281;45.772;12.852;2023-06-10T07:10:11;11.03;;;10.03;;
8488;SDS011;4281;45.772;12.852;2023-06-10T07:12:41;9.50;;;8.80;;
8488;SDS011;4281;45.772;12.852;2023-06-10T07:15:09;10.50;;;9.70;;
8488;SDS011;4281;45.772;12.852;2023-06-10T07:17:38;11.97;;;11.07;;
8488;SDS011;4281;45.772;12.852;2023-06-10T07:20:06;12.13;;;11.13;;
8488;SDS011;4281;45.772;12.852;2023-06-10T07:22:34;10.60;;;9.80;;
8488;SDS011;4281;45.772;12.852;2023-06-10T07:25:04;10.63;;;9.83;;
8488;SDS011;4281;45.772;12.852;2023-06-10T07:27:32;10.23;;;9.43;;
8488;SDS011;4281;45.772;12.852;2023-06-10T07:30:02;9.53;;;8.73;;
8488;SDS011;4281;45.772;12.852;2023-06-10T07:32:31;9.30;;;8.60;;
8488;SDS011;4281;45.772;12.852;2023-06-10T07:34:59;9.17;;;8.47;;
8488;SDS011;4281;45.772;12.852;2023-06-10T07:37:27;9.80;;;9.00;;
8488;SDS011;4281;45.772;12.852;2023-06-10T07:39:55;9.10;;;8.40;;
8488;SDS011;4281;45.772;12.852;2023-06-10T07:42:25;10.07;;;9.27;;
8488;SDS011;4281;45.772;12.852;2023-06-10T07:44:54;9.47;;;8.67;;
8488;SDS011;4281;45.772;12.852;2023-06-10T07:47:22;9.97;;;9.27;;
8488;SDS011;4281;45.772;12.852;2023-06-10T07:49:50;11.07;;;10.13;;
8488;SDS011;4281;45.772;12.852;2023-06-10T07:52:18;10.80;;;9.90;;
8488;SDS011;4281;45.772;12.852;2023-06-10T07:54:46;10.67;;;9.87;;
8488;SDS011;4281;45.772;12.852;2023-06-10T07:57:15;11.77;;;10.77;;
8488;SDS011;4281;45.772;12.852;2023-06-10T07:59:44;9.93;;;9.13;;
8488;SDS011;4281;45.772;12.852;2023-06-10T08:02:12;9.47;;;8.67;;
8488;SDS011;4281;45.772;12.852;2023-06-10T08:04:40;9.70;;;8.90;;
8488;SDS011;4281;45.772;12.852;2023-06-10T08:07:08;9.33;;;8.63;;
8488;SDS011;4281;45.772;12.852;2023-06-10T08:09:36;9.60;;;8.90;;
8488;SDS011;4281;45.772;12.852;2023-06-10T08:12:04;9.87;;;9.07;;
8488;SDS011;4281;45.772;12.852;2023-06-10T08:14:33;10.67;;;9.87;;
8488;SDS011;4281;45.772;12.852;2023-06-10T08:17:03;10.57;;;9.67;;
8488;SDS011;4281;45.772;12.852;2023-06-10T08:19:32;10.00;;;9.30;;
8488;SDS011;4281;45.772;12.852;2023-06-10T08:22:00;10.10;;;9.23;;
8488;SDS011;4281;45.772;12.852;2023-06-10T08:24:28;9.90;;;9.20;;
8488;SDS011;4281;45.772;12.852;2023-06-10T08:26:56;10.93;;;10.13;;
8488;SDS011;4281;45.772;12.852;2023-06-10T08:29:24;10.80;;;10.00;;
8488;SDS011;4281;45.772;12.852;2023-06-10T08:31:52;10.13;;;9.23;;
8488;SDS011;4281;45.772;12.852;2023-06-10T08:34:22;10.83;;;9.93;;
8488;SDS011;4281;45.772;12.852;2023-06-10T08:36:50;10.70;;;9.90;;
8488;SDS011;4281;45.772;12.852;2023-06-10T08:39:21;9.47;;;8.67;;
8488;SDS011;4281;45.772;12.852;2023-06-10T08:41:54;11.10;;;10.20;;
8488;SDS011;4281;45.772;12.852;2023-06-10T08:44:28;10.27;;;9.40;;
8488;SDS011;4281;45.772;12.852;2023-06-10T08:46:58;10.93;;;10.03;;
8488;SDS011;4281;45.772;12.852;2023-06-10T08:49:29;10.60;;;9.70;;
8488;SDS011;4281;45.772;12.852;2023-06-10T08:51:58;9.57;;;8.87;;
8488;SDS011;4281;45.772;12.852;2023-06-10T08:54:27;10.07;;;9.33;;
8488;SDS011;4281;45.772;12.852;2023-06-10T08:56:59;10.33;;;9.63;;
8488;SDS011;4281;45.772;12.852;2023-06-10T08:59:27;9.67;;;8.87;;
8488;SDS011;4281;45.772;12.852;2023-06-10T09:01:56;9.60;;;8.90;;
8488;SDS011;4281;45.772;12.852;2023-06-10T09:04:25;9.70;;;8.97;;
8488;SDS011;4281;45.772;12.852;2023-06-10T09:06:54;9.60;;;8.80;;
8488;SDS011;4281;45.772;12.852;2023-06-10T09:09:25;9.43;;;8.73;;
8488;SDS011;4281;45.772;12.852;2023-06-10T09:11:58;9.77;;;9.07;;
8488;SDS011;4281;45.772;12.852;2023-06-10T09:14:26;8.83;;;8.03;;
8488;SDS011;4281;45.772;12.852;2023-06-10T09:16:54;8.20;;;7.70;;
8488;SDS011;4281;45.772;12.852;2023-06-10T09:19:24;10.03;;;9.33;;
8488;SDS011;4281;45.772;12.852;2023-06-10T09:21:52;9.83;;;9.10;;
8488;SDS011;4281;45.772;12.852;2023-06-10T09:24:22;8.77;;;8.17;;
8488;SDS011;4281;45.772;12.852;2023-06-10T09:26:51;8.83;;;8.17;;
8488;SDS011;4281;45.772;12.852;2023-06-10T09:29:29;7.97;;;7.37;;
8488;SDS011;4281;45.772;12.852;2023-06-10T09:31:57;9.43;;;8.73;;
8488;SDS011;4281;45.772;12.852;2023-06-10T09:34:26;7.97;;;7.37;;
8488;SDS011;4281;45.772;12.852;2023-06-10T09:36:55;7.80;;;7.20;;
8488;SDS011;4281;45.772;12.852;2023-06-10T09:39:23;7.00;;;6.40;;
8488;SDS011;4281;45.772;12.852;2023-06-10T09:41:51;7.67;;;7.07;;
8488;SDS011;4281;45.772;12.852;2023-06-10T09:44:21;7.03;;;6.50;;
8488;SDS011;4281;45.772;12.852;2023-06-10T09:46:52;7.33;;;6.80;;
8488;SDS011;4281;45.772;12.852;2023-06-10T09:49:21;7.60;;;7.10;;
8488;SDS011;4281;45.772;12.852;2023-06-10T09:51:50;6.83;;;6.33;;
8488;SDS011;4281;45.772;12.852;2023-06-10T09:54:23;6.37;;;5.87;;
8488;SDS011;4281;45.772;12.852;2023-06-10T09:56:52;6.40;;;5.90;;
8488;SDS011;4281;45.772;12.852;2023-06-10T09:59:28;7.00;;;6.37;;
8488;SDS011;4281;45.772;12.852;2023-06-10T10:01:57;6.73;;;6.23;;
8488;SDS011;4281;45.772;12.852;2023-06-10T10:04:27;6.47;;;5.97;;
8488;SDS011;4281;45.772;12.852;2023-06-10T10:06:55;7.00;;;6.50;;
8488;SDS011;4281;45.772;12.852;2023-06-10T10:09:27;6.57;;;6.00;;
8488;SDS011;4281;45.772;12.852;2023-06-10T10:11:55;6.40;;;5.90;;
8488;SDS011;4281;45.772;12.852;2023-06-10T10:14:23;6.80;;;6.30;;
8488;SDS011;4281;45.772;12.852;2023-06-10T10:16:51;6.10;;;5.70;;
8488;SDS011;4281;45.772;12.852;2023-06-10T10:19:23;5.87;;;5.47;;
8488;SDS011;4281;45.772;12.852;2023-06-10T10:21:57;6.40;;;5.90;;
8488;SDS011;4281;45.772;12.852;2023-06-10T10:24:32;5.40;;;5.00;;
8488;SDS011;4281;45.772;12.852;2023-06-10T10:27:02;5.97;;;5.47;;
8488;SDS011;4281;45.772;12.852;2023-06-10T10:29:37;5.87;;;5.40;;
8488;SDS011;4281;45.772;12.852;2023-06-10T10:32:06;6.23;;;5.73;;
8488;SDS011;4281;45.772;12.852;2023-06-10T10:34:35;5.40;;;5.03;;
8488;SDS011;4281;45.772;12.852;2023-06-10T10:37:07;6.03;;;5.53;;
8488;SDS011;4281;45.772;12.852;2023-06-10T10:39:36;5.57;;;5.17;;
8488;SDS011;4281;45.772;12.852;2023-06-10T10:42:04;6.03;;;5.60;;
8488;SDS011;4281;45.772;12.852;2023-06-10T10:44:36;5.73;;;5.30;;
8488;SDS011;4281;45.772;12.852;2023-06-10T10:47:06;5.70;;;5.30;;
8488;SDS011;4281;45.772;12.852;2023-06-10T10:49:35;5.60;;;5.20;;
8488;SDS011;4281;45.772;12.852;2023-06-10T10:52:08;5.60;;;5.20;;
8488;SDS011;4281;45.772;12.852;2023-06-10T10:54:43;6.40;;;5.90;;
8488;SDS011;4281;45.772;12.852;2023-06-10T10:57:13;5.73;;;5.33;;
8488;SDS011;4281;45.772;12.852;2023-06-10T10:59:43;5.87;;;5.47;;
8488;SDS011;4281;45.772;12.852;2023-06-10T11:02:15;5.80;;;5.40;;
8488;SDS011;4281;45.772;12.852;2023-06-10T11:04:47;5.27;;;4.97;;
8488;SDS011;4281;45.772;12.852;2023-06-10T11:07:19;5.53;;;5.10;;
8488;SDS011;4281;45.772;12.852;2023-06-10T11:09:59;5.80;;;5.40;;
8488;SDS011;4281;45.772;12.852;2023-06-10T11:12:40;5.80;;;5.30;;
8488;SDS011;4281;45.772;12.852;2023-06-10T11:15:08;5.57;;;5.17;;
8488;SDS011;4281;45.772;12.852;2023-06-10T11:17:37;6.00;;;5.60;;
8488;SDS011;4281;45.772;12.852;2023-06-10T11:20:05;6.03;;;5.60;;
8488;SDS011;4281;45.772;12.852;2023-06-10T11:22:42;5.67;;;5.27;;
8488;SDS011;4281;45.772;12.852;2023-06-10T11:25:39;5.20;;;4.90;;
8488;SDS011;4281;45.772;12.852;2023-06-10T11:28:17;5.70;;;5.30;;
8488;SDS011;4281;45.772;12.852;2023-06-10T11:30:46;5.20;;;4.90;;
8488;SDS011;4281;45.772;12.852;2023-06-10T11:33:24;4.53;;;4.23;;
8488;SDS011;4281;45.772;12.852;2023-06-10T11:35:53;5.17;;;4.77;;
8488;SDS011;4281;45.772;12.852;2023-06-10T11:38:21;5.57;;;5.17;;
8488;SDS011;4281;45.772;12.852;2023-06-10T11:40:50;5.03;;;4.63;;
8488;SDS011;4281;45.772;12.852;2023-06-10T11:43:19;5.73;;;5.27;;
8488;SDS011;4281;45.772;12.852;2023-06-10T11:45:47;4.83;;;4.43;;
8488;SDS011;4281;45.772;12.852;2023-06-10T11:48:21;4.87;;;4.47;;
8488;SDS011;4281;45.772;12.852;2023-06-10T11:50:49;5.23;;;4.77;;
8488;SDS011;4281;45.772;12.852;2023-06-10T11:53:17;5.03;;;4.73;;
8488;SDS011;4281;45.772;12.852;2023-06-10T11:55:45;4.73;;;4.43;;
8488;SDS011;4281;45.772;12.852;2023-06-10T11:58:16;4.87;;;4.57;;
8488;SDS011;4281;45.772;12.852;2023-06-10T12:00:45;5.00;;;4.70;;
8488;SDS011;4281;45.772;12.852;2023-06-10T12:03:14;5.07;;;4.67;;
8488;SDS011;4281;45.772;12.852;2023-06-10T12:05:54;5.37;;;4.90;;
8488;SDS011;4281;45.772;12.852;2023-06-10T12:08:23;4.80;;;4.50;;
8488;SDS011;4281;45.772;12.852;2023-06-10T12:10:51;5.00;;;4.60;;
8488;SDS011;4281;45.772;12.852;2023-06-10T12:13:20;5.07;;;4.63;;
8488;SDS011;4281;45.772;12.852;2023-06-10T12:15:50;5.10;;;4.70;;
8488;SDS011;4281;45.772;12.852;2023-06-10T12:18:18;5.67;;;5.20;;
8488;SDS011;4281;45.772;12.852;2023-06-10T12:20:46;5.70;;;5.20;;
8488;SDS011;4281;45.772;12.852;2023-06-10T12:23:15;5.50;;;5.10;;
8488;SDS011;4281;45.772;12.852;2023-06-10T12:25:49;4.80;;;4.30;;
8488;SDS011;4281;45.772;12.852;2023-06-10T12:28:21;5.27;;;4.87;;
8488;SDS011;4281;45.772;12.852;2023-06-10T12:30:50;5.23;;;4.83;;
8488;SDS011;4281;45.772;12.852;2023-06-10T12:33:18;4.90;;;4.60;;
8488;SDS011;4281;45.772;12.852;2023-06-10T12:35:47;4.90;;;4.60;;
8488;SDS011;4281;45.772;12.852;2023-06-10T12:38:20;5.77;;;5.37;;
8488;SDS011;4281;45.772;12.852;2023-06-10T12:40:49;5.30;;;4.90;;
8488;SDS011;4281;45.772;12.852;2023-06-10T12:43:19;4.70;;;4.33;;
8488;SDS011;4281;45.772;12.852;2023-06-10T12:45:51;4.80;;;4.50;;
8488;SDS011;4281;45.772;12.852;2023-06-10T12:48:20;5.27;;;4.87;;
8488;SDS011;4281;45.772;12.852;2023-06-10T12:50:50;5.37;;;4.97;;
8488;SDS011;4281;45.772;12.852;2023-06-10T12:53:19;5.87;;;5.47;;
8488;SDS011;4281;45.772;12.852;2023-06-10T12:55:49;5.60;;;5.20;;
8488;SDS011;4281;45.772;12.852;2023-06-10T12:58:17;5.37;;;4.97;;
8488;SDS011;4281;45.772;12.852;2023-06-10T13:00:48;5.20;;;4.83;;
8488;SDS011;4281;45.772;12.852;2023-06-10T13:03:19;5.23;;;4.83;;
8488;SDS011;4281;45.772;12.852;2023-06-10T13:05:48;6.17;;;5.67;;
8488;SDS011;4281;45.772;12.852;2023-06-10T13:08:16;5.47;;;5.07;;
8488;SDS011;4281;45.772;12.852;2023-06-10T13:10:43;5.40;;;5.00;;
8488;SDS011;4281;45.772;12.852;2023-06-10T13:13:11;5.77;;;5.37;;
8488;SDS011;4281;45.772;12.852;2023-06-10T13:15:40;6.10;;;5.67;;
8488;SDS011;4281;45.772;12.852;2023-06-10T13:18:11;5.90;;;5.40;;
8488;SDS011;4281;45.772;12.852;2023-06-10T13:20:39;5.90;;;5.40;;
8488;SDS011;4281;45.772;12.852;2023-06-10T13:23:07;5.90;;;5.50;;
8488;SDS011;4281;45.772;12.852;2023-06-10T13:25:35;7.60;;;6.80;;
8488;SDS011;4281;45.772;12.852;2023-06-10T13:28:03;6.80;;;6.20;;
8488;SDS011;4281;45.772;12.852;2023-06-10T13:30:31;6.67;;;6.07;;
8488;SDS011;4281;45.772;12.852;2023-06-10T13:32:59;5.90;;;5.50;;
8488;SDS011;4281;45.772;12.852;2023-06-10T13:35:28;6.00;;;5.50;;
8488;SDS011;4281;45.772;12.852;2023-06-10T13:37:56;6.27;;;5.73;;
8488;SDS011;4281;45.772;12.852;2023-06-10T13:40:24;6.53;;;5.93;;
8488;SDS011;4281;45.772;12.852;2023-06-10T13:42:52;6.17;;;5.77;;
8488;SDS011;4281;45.772;12.852;2023-06-10T13:45:20;6.43;;;5.93;;
8488;SDS011;4281;45.772;12.852;2023-06-10T13:47:48;6.60;;;6.10;;
8488;SDS011;4281;45.772;12.852;2023-06-10T13:50:16;5.73;;;5.33;;
8488;SDS011;4281;45.772;12.852;2023-06-10T13:52:46;6.43;;;5.93;;
8488;SDS011;4281;45.772;12.852;2023-06-10T13:55:14;6.00;;;5.50;;
8488;SDS011;4281;45.772;12.852;2023-06-10T13:57:42;5.50;;;5.10;;
8488;SDS011;4281;45.772;12.852;2023-06-10T14:00:11;6.93;;;6.43;;
8488;SDS011;4281;45.772;12.852;2023-06-10T14:02:39;5.80;;;5.40;;
8488;SDS011;4281;45.772;12.852;2023-06-10T14:05:08;5.53;;;5.13;;
8488;SDS011;4281;45.772;12.852;2023-06-10T14:07:39;6.07;;;5.50;;
8488;SDS011;4281;45.772;12.852;2023-06-10T14:10:09;7.57;;;6.53;;
8488;SDS011;4281;45.772;12.852;2023-06-10T14:12:37;7.53;;;6.67;;
8488;SDS011;4281;45.772;12.852;2023-06-10T14:15:05;7.87;;;7.07;;
8488;SDS011;4281;45.772;12.852;2023-06-10T14:17:34;5.57;;;5.17;;
8488;SDS011;4281;45.772;12.852;2023-06-10T14:20:03;5.93;;;5.43;;
8488;SDS011;4281;45.772;12.852;2023-06-10T14:22:32;5.90;;;5.50;;
8488;SDS011;4281;45.772;12.852;2023-06-10T14:25:00;6.10;;;5.70;;
8488;SDS011;4281;45.772;12.852;2023-06-10T14:27:29;5.43;;;5.03;;
8488;SDS011;4281;45.772;12.852;2023-06-10T14:29:57;5.10;;;4.77;;
8488;SDS011;4281;45.772;12.852;2023-06-10T14:32:25;4.77;;;4.33;;
8488;SDS011;4281;45.772;12.852;2023-06-10T14:34:53;4.53;;;4.20;;
8488;SDS011;4281;45.772;12.852;2023-06-10T14:37:21;4.60;;;4.20;;
8488;SDS011;4281;45.772;12.852;2023-06-10T14:39:49;5.37;;;4.97;;
8488;SDS011;4281;45.772;12.852;2023-06-10T14:42:17;5.70;;;5.10;;
8488;SDS011;4281;45.772;12.852;2023-06-10T14:44:46;5.40;;;4.90;;
8488;SDS011;4281;45.772;12.852;2023-06-10T14:47:14;5.97;;;5.40;;
8488;SDS011;4281;45.772;12.852;2023-06-10T14:49:42;5.20;;;4.70;;
8488;SDS011;4281;45.772;12.852;2023-06-10T14:52:10;4.53;;;4.23;;
8488;SDS011;4281;45.772;12.852;2023-06-10T14:54:38;6.07;;;4.57;;
8488;SDS011;4281;45.772;12.852;2023-06-10T14:57:06;4.50;;;4.10;;
8488;SDS011;4281;45.772;12.852;2023-06-10T14:59:34;4.87;;;4.47;;
8488;SDS011;4281;45.772;12.852;2023-06-10T15:02:03;5.20;;;4.70;;
8488;SDS011;4281;45.772;12.852;2023-06-10T15:04:31;5.30;;;4.80;;